Time;durP1;ratioP1;P1;durP2;ratioP2;P2;SDS_P1;SDS_P2;PMS_P1;PMS_P2;Temp;Humidity;BMP_temperature;BMP_pressure;BME280_temperature;BME280_humidity;BME280_pressure;Samples;Min_cycle;Max_cycle;Signal;HPM_P1;HPM_P2
2022/09/14 00:01:17;;;;;;;4.30;1.40;;;20.50;62.60;;;;;;5074120;28;20025;-72
2022/09/14 00:03:43;;;;;;;3.08;1.38;;;20.50;62.50;;;;;;5074142;28;20021;-72
2022/09/14 00:06:12;;;;;;;7.47;1.63;;;20.40;62.60;;;;;;5074022;28;20031;-71
2022/09/14 00:08:39;;;;;;;4.93;1.20;;;20.40;62.60;;;;;;5073796;28;20041;-72
2022/09/14 00:11:06;;;;;;;5.40;1.40;;;20.30;62.60;;;;;;5073959;28;20388;-71
2022/09/14 00:13:33;;;;;;;3.03;1.40;;;20.30;62.70;;;;;;5073852;28;20024;-72
2022/09/14 00:16:04;;;;;;;4.22;1.25;;;20.30;62.70;;;;;;5073437;28;20075;-72
2022/09/14 00:18:30;;;;;;;5.28;1.50;;;20.30;62.80;;;;;;5073637;28;20024;-72
2022/09/14 00:21:00;;;;;;;3.10;1.10;;;20.30;63.00;;;;;;5073787;28;20024;-71
2022/09/14 00:23:26;;;;;;;5.45;1.20;;;20.30;63.00;;;;;;5073750;28;20029;-71
2022/09/14 00:25:51;;;;;;;6.07;1.60;;;20.30;63.20;;;;;;5073744;28;20488;-72
2022/09/14 00:28:17;;;;;;;4.68;1.40;;;20.30;63.10;;;;;;5073481;28;20037;-72
2022/09/14 00:30:43;;;;;;;7.07;1.77;;;20.30;63.10;;;;;;5073746;28;20021;-71
2022/09/14 00:33:08;;;;;;;3.25;1.17;;;20.30;63.00;;;;;;5073552;28;20092;-72
2022/09/14 00:35:35;;;;;;;4.28;1.42;;;20.20;63.10;;;;;;5072534;28;20116;-72
2022/09/14 00:38:00;;;;;;;3.33;1.20;;;20.20;63.10;;;;;;5073530;28;20094;-71
2022/09/14 00:40:26;;;;;;;4.47;1.70;;;20.20;63.10;;;;;;5073606;28;20029;-71
2022/09/14 00:42:52;;;;;;;3.20;1.55;;;20.20;63.30;;;;;;5073422;28;20025;-71
2022/09/14 00:45:20;;;;;;;9.40;1.67;;;20.10;63.70;;;;;;5073400;28;20060;-72
2022/09/14 00:47:49;;;;;;;6.22;1.58;;;20.10;64.30;;;;;;5072330;28;20032;-71
2022/09/14 00:50:17;;;;;;;2.38;1.35;;;20.00;64.60;;;;;;5073399;28;20028;-72
2022/09/14 00:52:46;;;;;;;4.40;1.33;;;20.00;64.50;;;;;;5073429;28;20024;-71
2022/09/14 00:55:16;;;;;;;5.70;1.50;;;20.00;64.60;;;;;;5073268;28;20021;-72
2022/09/14 00:57:52;;;;;;;3.67;1.02;;;20.00;64.60;;;;;;5073420;28;20051;-72
2022/09/14 01:00:22;;;;;;;6.95;1.83;;;20.10;64.70;;;;;;5073284;28;20085;-72
2022/09/14 01:02:48;;;;;;;7.68;1.60;;;20.00;64.70;;;;;;5073211;28;20076;-72
2022/09/14 01:05:15;;;;;;;5.47;1.60;;;20.10;64.70;;;;;;5073173;28;20029;-72
2022/09/14 01:08:04;;;;;;;5.68;1.75;;;20.10;64.90;;;;;;5072938;28;20052;-72
2022/09/14 01:10:56;;;;;;;6.10;1.50;;;20.00;65.30;;;;;;5073252;28;20060;-72
2022/09/14 01:13:34;;;;;;;6.20;1.42;;;20.00;65.50;;;;;;5073130;28;20018;-72
2022/09/14 01:16:29;;;;;;;6.63;1.60;;;20.00;65.40;;;;;;5073081;28;20036;-72
2022/09/14 01:18:57;;;;;;;6.18;1.77;;;19.90;65.80;;;;;;5071229;28;20037;-72
2022/09/14 01:21:27;;;;;;;3.53;1.35;;;19.90;65.90;;;;;;5072939;28;20399;-72
2022/09/14 01:24:41;;;;;;;5.45;1.90;;;19.90;65.90;;;;;;5073017;28;20021;-72
2022/09/14 01:27:29;;;;;;;;;;;19.90;65.90;;;;;;5061425;28;20045;-72
2022/09/14 01:30:06;;;;;;;4.03;1.30;;;19.80;66.10;;;;;;5071076;28;19954;-72
2022/09/14 01:32:55;;;;;;;5.65;1.55;;;19.60;66.70;;;;;;5076964;28;20111;-72
2022/09/14 01:35:23;;;;;;;3.03;1.50;;;19.60;67.10;;;;;;5076825;28;20185;-72
2022/09/14 01:37:51;;;;;;;5.40;1.65;;;19.60;67.20;;;;;;5077000;28;20021;-72
2022/09/14 01:40:27;;;;;;;5.65;1.50;;;19.50;67.30;;;;;;5076783;28;20025;-72
2022/09/14 01:42:58;;;;;;;6.38;1.38;;;19.50;67.50;;;;;;5076940;28;20028;-72
2022/09/14 01:45:26;;;;;;;5.67;1.50;;;19.50;67.50;;;;;;5076804;28;20025;-71
2022/09/14 01:48:01;;;;;;;5.47;2.10;;;19.50;67.30;;;;;;5076644;28;20025;-72
2022/09/14 01:50:30;;;;;;;3.65;1.65;;;19.60;67.20;;;;;;5076600;28;20055;-72
2022/09/14 01:53:25;;;;;;;4.65;1.55;;;19.70;67.10;;;;;;5076588;28;20025;-72
2022/09/14 01:56:18;;;;;;;5.35;1.88;;;19.70;66.90;;;;;;5074400;28;20037;-71
2022/09/14 01:58:52;;;;;;;6.32;1.50;;;19.60;67.20;;;;;;5076629;28;20029;-72
2022/09/14 02:01:34;;;;;;;5.85;1.40;;;19.60;67.40;;;;;;5076593;28;20025;-72
2022/09/14 02:04:04;;;;;;;3.58;1.42;;;19.60;68.20;;;;;;5076455;28;20051;-72
2022/09/14 02:06:34;;;;;;;3.63;1.42;;;19.50;67.60;;;;;;5076421;28;20027;-72
2022/09/14 02:09:01;;;;;;;3.33;1.60;;;19.50;67.60;;;;;;5076148;28;20091;-72
2022/09/14 02:11:28;;;;;;;2.97;1.60;;;19.50;67.80;;;;;;5076232;28;20460;-72
2022/09/14 02:13:54;;;;;;;5.53;1.85;;;19.40;67.70;;;;;;5076206;28;20017;-73
2022/09/14 02:16:22;;;;;;;4.25;1.50;;;19.40;68.00;;;;;;5076142;28;20029;-72
2022/09/14 02:18:48;;;;;;;7.18;1.60;;;19.40;68.20;;;;;;5076132;28;20077;-73
2022/09/14 02:21:19;;;;;;;5.70;1.50;;;19.40;68.30;;;;;;5076050;28;20021;-72
2022/09/14 02:23:45;;;;;;;6.22;1.50;;;19.40;68.40;;;;;;5076036;28;20076;-73
2022/09/14 02:26:11;;;;;;;4.07;1.50;;;19.40;68.70;;;;;;5076083;28;20057;-72
2022/09/14 02:28:37;;;;;;;5.93;1.48;;;19.30;68.90;;;;;;5075768;28;20033;-72
2022/09/14 02:31:20;;;;;;;6.90;1.50;;;19.40;69.00;;;;;;5075859;28;20044;-73
2022/09/14 02:34:04;;;;;;;6.10;1.23;;;19.30;69.30;;;;;;5075977;28;20020;-72
2022/09/14 02:36:57;;;;;;;5.07;1.60;;;19.30;68.90;;;;;;5075765;28;20029;-72
2022/09/14 02:39:53;;;;;;;4.15;1.10;;;19.30;69.20;;;;;;5075131;28;20036;-72
2022/09/14 02:42:43;;;;;;;4.05;1.15;;;19.30;69.10;;;;;;5075814;28;20028;-72
2022/09/14 02:45:35;;;;;;;3.97;1.25;;;19.30;69.70;;;;;;5075634;28;20031;-72
2022/09/14 02:48:12;;;;;;;4.23;1.30;;;19.20;69.90;;;;;;5075759;28;20021;-72
2022/09/14 02:50:50;;;;;;;4.95;1.30;;;19.20;69.70;;;;;;5075578;28;20099;-72
2022/09/14 02:53:23;;;;;;;3.35;0.98;;;19.30;69.70;;;;;;5075444;28;20037;-72
2022/09/14 02:55:53;;;;;;;6.78;1.42;;;19.30;69.50;;;;;;5075608;28;20082;-72
2022/09/14 02:58:19;;;;;;;2.95;1.15;;;19.30;69.70;;;;;;5075389;28;20013;-73
2022/09/14 03:00:47;;;;;;;4.20;1.25;;;19.30;69.80;;;;;;5075312;28;20164;-73
2022/09/14 03:03:15;;;;;;;6.35;1.27;;;19.30;70.00;;;;;;5075257;28;20024;-73
2022/09/14 03:05:42;;;;;;;2.75;1.30;;;19.30;70.20;;;;;;5075211;28;20084;-73
2022/09/14 03:08:11;;;;;;;3.50;1.60;;;19.30;70.10;;;;;;5075008;28;20045;-73
2022/09/14 03:10:37;;;;;;;9.00;2.28;;;19.30;70.30;;;;;;5074084;28;20060;-73
2022/09/14 03:13:03;;;;;;;5.15;1.70;;;19.30;70.60;;;;;;5074121;28;20040;-73
2022/09/14 03:15:29;;;;;;;4.00;1.40;;;19.20;70.60;;;;;;5075021;28;20029;-73
2022/09/14 03:17:55;;;;;;;4.22;1.63;;;19.20;70.60;;;;;;5074998;28;20021;-73
2022/09/14 03:20:24;;;;;;;4.43;1.52;;;19.20;70.80;;;;;;5074924;28;20040;-73
2022/09/14 03:22:50;;;;;;;2.97;1.48;;;19.20;70.90;;;;;;5074895;28;20025;-73
2022/09/14 03:25:17;;;;;;;6.75;1.63;;;19.10;70.90;;;;;;5074871;28;20031;-73
2022/09/14 03:27:48;;;;;;;3.78;1.50;;;19.10;71.20;;;;;;5074813;28;20079;-73
2022/09/14 03:30:13;;;;;;;2.70;1.40;;;19.10;71.20;;;;;;5074666;28;20028;-73
2022/09/14 03:32:39;;;;;;;6.25;1.50;;;18.90;71.80;;;;;;5074691;28;20021;-73
2022/09/14 03:35:05;;;;;;;2.90;1.55;;;18.90;72.00;;;;;;5074641;28;20025;-73
2022/09/14 03:37:31;;;;;;;5.40;1.65;;;18.90;71.90;;;;;;5074588;28;20092;-73
2022/09/14 03:39:56;;;;;;;3.85;1.42;;;18.90;71.80;;;;;;5073620;28;20029;-73
2022/09/14 03:42:22;;;;;;;2.53;1.50;;;18.90;72.00;;;;;;5074640;28;20033;-73
2022/09/14 03:44:48;;;;;;;6.45;1.70;;;18.90;72.00;;;;;;5074471;28;20036;-73
2022/09/14 03:47:13;;;;;;;3.40;1.55;;;18.90;72.20;;;;;;5074420;28;20036;-73
2022/09/14 03:49:39;;;;;;;6.32;1.42;;;18.80;72.50;;;;;;5074322;28;20025;-73
2022/09/14 03:52:05;;;;;;;2.17;1.30;;;18.70;72.60;;;;;;5073258;28;20029;-73
2022/09/14 03:54:30;;;;;;;4.28;1.48;;;18.60;72.50;;;;;;5074416;28;20053;-73
2022/09/14 03:56:56;;;;;;;4.00;1.30;;;18.60;72.60;;;;;;5074216;28;20025;-73
2022/09/14 03:59:21;;;;;;;3.03;1.30;;;18.50;72.80;;;;;;5073250;28;20025;-73
2022/09/14 04:01:47;;;;;;;3.50;1.23;;;18.50;73.10;;;;;;5074122;28;20080;-73
2022/09/14 04:04:13;;;;;;;5.07;1.60;;;18.50;73.00;;;;;;5074233;28;20093;-73
2022/09/14 04:06:38;;;;;;;2.65;1.13;;;18.50;72.70;;;;;;5073818;28;20088;-74
2022/09/14 04:09:04;;;;;;;4.05;1.40;;;18.50;72.70;;;;;;5073969;28;20104;-73
2022/09/14 04:11:30;;;;;;;4.63;1.17;;;18.40;72.70;;;;;;5073147;28;20040;-73
2022/09/14 04:14:00;;;;;;;4.78;1.88;;;18.20;72.70;;;;;;5073924;28;20021;-73
2022/09/14 04:16:27;;;;;;;3.80;1.20;;;18.20;73.40;;;;;;5073867;28;20025;-73
2022/09/14 04:18:52;;;;;;;4.32;1.45;;;18.10;73.60;;;;;;5073833;28;20029;-73
2022/09/14 04:21:20;;;;;;;5.82;1.50;;;18.00;73.70;;;;;;5073770;28;20029;-73
2022/09/14 04:23:47;;;;;;;3.30;1.45;;;17.90;73.30;;;;;;5073743;28;20021;-72
2022/09/14 04:26:16;;;;;;;3.30;1.80;;;17.90;73.60;;;;;;5073841;28;20025;-72
2022/09/14 04:28:42;;;;;;;3.85;1.60;;;17.90;74.00;;;;;;5073656;28;20025;-73
2022/09/14 04:31:09;;;;;;;3.58;1.60;;;17.90;74.20;;;;;;5073606;28;20086;-73
2022/09/14 04:33:36;;;;;;;4.13;1.80;;;17.90;74.00;;;;;;5073730;28;20036;-73
2022/09/14 04:36:08;;;;;;;2.88;1.90;;;17.80;74.20;;;;;;5073568;28;20034;-73
2022/09/14 04:38:35;;;;;;;6.10;1.80;;;17.90;74.80;;;;;;5073504;28;20021;-72
2022/09/14 04:41:05;;;;;;;4.22;1.65;;;17.80;74.80;;;;;;5073518;28;20043;-72
2022/09/14 04:43:30;;;;;;;5.10;1.60;;;17.80;74.90;;;;;;5073761;28;20013;-73
2022/09/14 04:46:01;;;;;;;4.95;1.80;;;17.90;74.90;;;;;;5073411;28;20107;-73
2022/09/14 04:48:32;;;;;;;5.47;1.70;;;17.90;75.00;;;;;;5073488;28;20028;-73
2022/09/14 04:51:00;;;;;;;4.90;1.50;;;17.80;75.10;;;;;;5073398;28;20020;-73
2022/09/14 04:53:26;;;;;;;3.53;1.73;;;17.90;75.20;;;;;;5073374;28;20025;-73
2022/09/14 04:55:52;;;;;;;3.15;1.40;;;17.90;75.40;;;;;;5073382;28;20032;-72
2022/09/14 04:58:17;;;;;;;3.13;1.42;;;18.00;75.40;;;;;;5073260;28;20029;-73
2022/09/14 05:00:43;;;;;;;4.13;1.48;;;18.00;75.00;;;;;;5073186;28;20033;-73
2022/09/14 05:03:08;;;;;;;4.72;1.30;;;17.90;75.20;;;;;;5072856;28;20040;-73
2022/09/14 05:05:35;;;;;;;6.45;1.60;;;17.90;75.10;;;;;;5073170;28;20028;-73
2022/09/14 05:08:01;;;;;;;5.53;1.70;;;17.90;74.90;;;;;;5072969;28;20049;-73
2022/09/14 05:10:26;;;;;;;5.20;1.70;;;17.80;74.80;;;;;;5073051;28;20033;-73
2022/09/14 05:12:53;;;;;;;3.25;1.65;;;17.70;74.80;;;;;;5073088;28;20033;-73
2022/09/14 05:15:18;;;;;;;5.28;1.60;;;17.70;75.00;;;;;;5072955;28;20040;-73
2022/09/14 05:17:44;;;;;;;4.97;1.65;;;17.70;75.20;;;;;;5073059;28;20026;-73
2022/09/14 05:20:09;;;;;;;3.63;1.60;;;17.60;75.30;;;;;;5073059;28;20050;-73
2022/09/14 05:22:35;;;;;;;3.13;1.95;;;17.70;75.70;;;;;;5072997;28;20029;-73
2022/09/14 05:25:00;;;;;;;4.90;1.90;;;17.80;75.50;;;;;;5073099;28;20025;-73
2022/09/14 05:27:26;;;;;;;5.38;2.15;;;17.80;75.50;;;;;;5073094;28;20372;-72
2022/09/14 05:29:52;;;;;;;3.72;2.22;;;17.90;75.60;;;;;;5072789;28;20037;-73
2022/09/14 05:32:17;;;;;;;5.97;1.98;;;17.90;75.60;;;;;;5073060;28;20025;-73
2022/09/14 05:34:43;;;;;;;4.35;1.70;;;18.00;75.50;;;;;;5072894;28;20033;-72
2022/09/14 05:37:11;;;;;;;2.50;1.70;;;18.00;75.50;;;;;;5073061;28;20017;-73
2022/09/14 05:39:37;;;;;;;2.22;1.40;;;18.10;75.30;;;;;;5072841;28;20020;-73
2022/09/14 05:42:03;;;;;;;4.68;1.92;;;18.00;75.30;;;;;;5072830;28;20025;-73
2022/09/14 05:44:28;;;;;;;2.97;1.80;;;18.10;75.30;;;;;;5072768;28;20029;-73
2022/09/14 05:46:54;;;;;;;4.00;2.10;;;18.10;75.10;;;;;;5071843;28;20033;-73
2022/09/14 05:49:19;;;;;;;6.80;2.35;;;18.10;75.10;;;;;;5072679;28;20033;-73
2022/09/14 05:51:45;;;;;;;6.38;2.35;;;18.10;75.30;;;;;;5072717;28;20032;-72
2022/09/14 05:54:11;;;;;;;6.30;2.28;;;18.20;75.10;;;;;;5072671;28;20041;-73
2022/09/14 05:56:36;;;;;;;6.20;2.28;;;18.20;74.90;;;;;;5072621;28;20025;-73
2022/09/14 05:59:02;;;;;;;5.82;2.13;;;18.30;74.90;;;;;;5072659;28;20033;-73
2022/09/14 06:01:30;;;;;;;3.90;2.00;;;18.30;74.90;;;;;;5072653;28;20052;-73
2022/09/14 06:03:59;;;;;;;6.63;1.60;;;18.30;74.80;;;;;;5072651;28;20025;-73
2022/09/14 06:06:25;;;;;;;2.85;1.50;;;18.30;74.90;;;;;;5072753;28;20025;-72
2022/09/14 06:08:52;;;;;;;4.63;1.60;;;18.30;74.80;;;;;;5072364;28;20056;-73
2022/09/14 06:11:30;;;;;;;4.85;1.70;;;18.30;74.80;;;;;;5072571;28;20085;-73
2022/09/14 06:13:56;;;;;;;4.35;1.52;;;18.20;74.80;;;;;;5072591;28;20036;-73
2022/09/14 06:16:24;;;;;;;4.63;1.60;;;18.20;75.10;;;;;;5075561;28;20029;-73
2022/09/14 06:18:50;;;;;;;4.65;1.60;;;18.20;75.40;;;;;;5076216;28;20056;-72
2022/09/14 06:21:18;;;;;;;5.85;1.70;;;18.10;75.40;;;;;;5076028;28;20029;-73
2022/09/14 06:23:45;;;;;;;4.82;1.60;;;18.20;75.20;;;;;;5076012;28;20021;-73
2022/09/14 06:26:11;;;;;;;2.92;1.58;;;18.20;75.10;;;;;;5075876;28;20036;-72
2022/09/14 06:28:37;;;;;;;8.27;1.85;;;18.10;75.00;;;;;;5075680;28;20032;-72
2022/09/14 06:31:06;;;;;;;3.78;1.58;;;18.20;75.00;;;;;;5075887;28;20029;-72
2022/09/14 06:33:32;;;;;;;6.63;1.70;;;18.20;75.00;;;;;;5074933;28;20035;-73
2022/09/14 06:36:11;;;;;;;4.70;1.60;;;18.00;75.20;;;;;;5075782;28;20025;-73
2022/09/14 06:38:37;;;;;;;4.78;1.55;;;17.90;75.60;;;;;;5075773;28;20035;-72
2022/09/14 06:41:05;;;;;;;3.20;1.20;;;17.80;76.10;;;;;;5075699;28;20021;-72
2022/09/14 06:43:36;;;;;;;6.53;1.70;;;17.70;76.20;;;;;;5075681;28;20025;-72
2022/09/14 06:46:04;;;;;;;3.55;1.67;;;17.80;76.70;;;;;;5075691;28;20057;-72
2022/09/14 06:48:33;;;;;;;4.68;2.15;;;17.90;76.70;;;;;;5075658;28;20027;-72
2022/09/14 06:50:59;;;;;;;40.83;20.13;;;17.90;76.70;;;;;;5075502;28;20029;-72
2022/09/14 06:53:24;;;;;;;14.73;7.43;;;18.00;76.70;;;;;;5075476;28;20025;-72
2022/09/14 06:55:50;;;;;;;5.57;2.00;;;18.10;76.70;;;;;;5075406;28;20021;-73
2022/09/14 06:58:16;;;;;;;3.90;1.95;;;18.10;76.40;;;;;;5075398;28;20479;-72
2022/09/14 07:00:42;;;;;;;4.55;1.60;;;18.10;76.30;;;;;;5075367;28;20044;-72
2022/09/14 07:03:08;;;;;;;2.97;1.67;;;18.20;76.30;;;;;;5074189;28;20043;-72
2022/09/14 07:05:33;;;;;;;5.65;1.63;;;18.20;76.20;;;;;;5074357;28;20051;-72
2022/09/14 07:07:59;;;;;;;7.13;1.73;;;18.20;76.10;;;;;;5075024;28;20420;-73
2022/09/14 07:10:27;;;;;;;2.20;1.70;;;18.30;76.10;;;;;;5075082;28;20044;-73
2022/09/14 07:12:53;;;;;;;7.15;2.17;;;18.30;76.10;;;;;;5075081;28;20036;-72
2022/09/14 07:15:20;;;;;;;3.95;1.63;;;18.30;76.40;;;;;;5075103;28;20048;-72
2022/09/14 07:17:46;;;;;;;4.18;1.90;;;18.30;76.50;;;;;;5074025;28;20032;-72
2022/09/14 07:20:14;;;;;;;4.07;1.65;;;18.30;76.30;;;;;;5074946;28;20037;-73
2022/09/14 07:22:40;;;;;;;4.95;2.17;;;18.30;76.30;;;;;;5074934;28;20427;-73
2022/09/14 07:25:06;;;;;;;5.50;1.90;;;18.30;76.40;;;;;;5074877;28;20051;-72
2022/09/14 07:27:33;;;;;;;2.38;1.48;;;18.30;76.40;;;;;;5074675;28;20033;-72
2022/09/14 07:29:58;;;;;;;5.20;1.75;;;18.30;76.50;;;;;;5074655;28;20024;-72
2022/09/14 07:32:24;;;;;;;5.50;2.00;;;18.30;76.70;;;;;;5074756;28;20056;-73
2022/09/14 07:34:50;;;;;;;6.72;1.80;;;18.30;76.70;;;;;;5074700;28;20021;-72
2022/09/14 07:37:15;;;;;;;5.10;2.13;;;18.30;76.60;;;;;;5074832;28;20453;-73
2022/09/14 07:39:41;;;;;;;5.85;1.70;;;18.30;77.50;;;;;;5073700;28;20041;-72
2022/09/14 07:42:07;;;;;;;7.60;2.17;;;18.30;76.50;;;;;;5073643;28;20033;-72
2022/09/14 07:44:32;;;;;;;5.32;2.08;;;18.20;76.80;;;;;;5074616;28;20025;-72
2022/09/14 07:46:58;;;;;;;5.18;2.47;;;18.20;76.80;;;;;;5074435;28;20033;-72
2022/09/14 07:49:24;;;;;;;6.43;1.98;;;18.20;76.80;;;;;;5074281;28;20060;-72
2022/09/14 07:51:51;;;;;;;4.85;1.80;;;18.20;76.90;;;;;;5074419;28;20050;-72
2022/09/14 07:54:18;;;;;;;4.35;1.80;;;18.10;76.70;;;;;;5074296;28;20021;-72
2022/09/14 07:56:44;;;;;;;6.20;1.88;;;18.10;77.00;;;;;;5074245;28;20500;-73
2022/09/14 07:59:12;;;;;;;3.63;1.90;;;18.10;77.40;;;;;;5074234;28;20025;-72
2022/09/14 08:01:37;;;;;;;4.95;2.10;;;18.10;77.60;;;;;;5074182;28;20029;-72
2022/09/14 08:04:03;;;;;;;2.75;1.80;;;18.10;77.50;;;;;;5074092;28;20036;-72
2022/09/14 08:06:30;;;;;;;4.85;2.00;;;18.20;77.40;;;;;;5074211;28;20029;-72
2022/09/14 08:08:56;;;;;;;6.22;2.25;;;18.20;77.40;;;;;;5073818;28;20049;-72
2022/09/14 08:11:28;;;;;;;7.40;2.42;;;18.10;77.30;;;;;;5073934;28;20470;-72
2022/09/14 08:14:03;;;;;;;6.70;2.38;;;18.10;77.40;;;;;;5073943;28;20021;-72
2022/09/14 08:16:30;;;;;;;4.32;2.20;;;18.10;77.20;;;;;;5073892;28;20017;-72
2022/09/14 08:18:59;;;;;;;4.93;2.33;;;18.00;77.60;;;;;;5073820;28;20033;-72
2022/09/14 08:21:29;;;;;;;7.10;2.10;;;18.10;78.00;;;;;;5073937;28;20029;-71
2022/09/14 08:23:56;;;;;;;5.22;2.67;;;18.10;77.90;;;;;;5073784;28;20017;-72
2022/09/14 08:26:24;;;;;;;4.80;2.30;;;18.10;78.40;;;;;;5073723;28;20029;-72
2022/09/14 08:28:51;;;;;;;6.20;2.20;;;18.10;78.60;;;;;;5073507;28;20050;-72
2022/09/14 08:31:22;;;;;;;5.93;2.15;;;18.10;78.50;;;;;;5073665;28;20036;-72
2022/09/14 08:33:50;;;;;;;6.30;2.50;;;18.20;78.30;;;;;;5073695;28;20422;-72
2022/09/14 08:36:19;;;;;;;7.32;2.80;;;18.20;78.50;;;;;;5073573;28;20085;-72
2022/09/14 08:38:44;;;;;;;8.52;2.70;;;18.20;78.50;;;;;;5072906;28;20024;-72
2022/09/14 08:41:52;;;;;;;8.05;2.67;;;18.10;78.60;;;;;;5073461;28;20025;-72
2022/09/14 08:48:22;;;;;;;6.90;2.78;;;18.10;78.60;;;;;;5031965;28;20124;-71
2022/09/14 08:50:52;;;;;;;7.55;2.85;;;18.20;78.50;;;;;;5042294;28;20047;-71
2022/09/14 08:53:20;;;;;;;8.45;3.03;;;18.10;78.50;;;;;;5073351;28;20419;-72
2022/09/14 08:55:59;;;;;;;5.43;2.55;;;18.10;78.40;;;;;;5073200;28;20052;-72
2022/09/14 08:58:46;;;;;;;5.28;2.90;;;18.10;78.40;;;;;;5073297;28;20108;-72
2022/09/14 09:01:44;;;;;;;5.85;2.83;;;18.10;78.50;;;;;;5073378;28;20044;-72
2022/09/14 09:04:37;;;;;;;6.30;2.65;;;18.00;78.70;;;;;;5073272;28;20022;-72
2022/09/14 09:07:17;;;;;;;6.68;2.63;;;18.10;78.90;;;;;;5073133;28;20041;-71
2022/09/14 09:09:44;;;;;;;5.72;3.30;;;18.10;78.90;;;;;;5073098;28;20028;-71
2022/09/14 09:12:19;;;;;;;8.70;3.45;;;18.20;78.80;;;;;;5073086;28;20052;-72
2022/09/14 09:14:53;;;;;;;12.18;4.65;;;18.20;78.70;;;;;;5073136;28;20040;-71
2022/09/14 09:17:49;;;;;;;6.57;2.80;;;18.30;78.60;;;;;;5073102;28;20028;-71
2022/09/14 09:20:54;;;;;;;7.82;3.05;;;18.30;78.60;;;;;;5068169;28;20127;-71
2022/09/14 09:23:32;;;;;;;4.75;2.80;;;18.40;78.40;;;;;;5073075;28;20053;-70
2022/09/14 09:27:08;;;;;;;6.85;2.63;;;18.30;78.20;;;;;;5071823;28;20567;-70
2022/09/14 09:29:29;;;;;;;4.35;2.65;;;18.30;78.50;;;;;;5072224;28;20037;-70
2022/09/14 09:32:07;;;;;;;5.97;2.70;;;18.30;78.40;;;;;;5072948;28;20025;-68
2022/09/14 09:34:34;;;;;;;4.85;2.30;;;18.20;78.50;;;;;;5073083;28;20053;-68
2022/09/14 09:37:00;;;;;;;5.07;2.60;;;18.20;78.40;;;;;;5072922;28;20028;-68
2022/09/14 09:39:28;;;;;;;4.38;2.53;;;18.30;78.50;;;;;;5072845;28;20029;-69
2022/09/14 09:42:02;;;;;;;5.97;2.42;;;18.30;78.40;;;;;;5072823;28;20035;-68
2022/09/14 09:44:28;;;;;;;5.50;2.63;;;18.30;78.50;;;;;;5072868;28;20055;-69
2022/09/14 09:46:57;;;;;;;6.75;2.53;;;18.30;78.40;;;;;;5071819;28;20029;-69
2022/09/14 09:49:34;;;;;;;4.53;2.70;;;18.30;78.50;;;;;;5074491;28;20028;-68
2022/09/14 09:52:12;;;;;;;8.40;3.00;;;18.30;78.40;;;;;;5076657;28;20021;-68
2022/09/14 09:54:40;;;;;;;8.35;3.17;;;18.30;78.60;;;;;;5076682;28;20017;-68
2022/09/14 09:57:27;;;;;;;4.85;2.80;;;18.30;78.40;;;;;;5076595;28;20017;-68
2022/09/14 10:00:16;;;;;;;8.55;2.78;;;18.20;78.50;;;;;;5075571;28;20139;-68
2022/09/14 10:02:42;;;;;;;6.65;2.83;;;18.20;79.00;;;;;;5075781;28;20040;-70
2022/09/14 10:05:07;;;;;;;5.95;3.22;;;18.10;78.90;;;;;;5074074;28;20033;-69
2022/09/14 10:07:36;;;;;;;10.43;3.72;;;18.00;79.00;;;;;;5075825;28;20080;-68
2022/09/14 10:10:12;;;;;;;7.70;3.38;;;18.00;78.70;;;;;;5075849;28;20024;-69
2022/09/14 10:12:45;;;;;;;5.93;3.60;;;17.90;78.80;;;;;;5074986;28;20021;-68
2022/09/14 10:15:21;;;;;;;7.75;3.50;;;17.80;78.90;;;;;;5076106;28;20044;-69
2022/09/14 10:18:06;;;;;;;8.13;3.22;;;17.80;79.90;;;;;;5076143;28;20021;-68
2022/09/14 10:20:32;;;;;;;7.72;3.38;;;17.70;78.60;;;;;;5075074;28;20021;-68
2022/09/14 10:23:14;;;;;;;6.88;3.10;;;17.60;79.00;;;;;;5075153;28;20163;-69
2022/09/14 10:25:39;;;;;;;7.70;3.40;;;17.60;79.60;;;;;;5076103;28;20024;-68
2022/09/14 10:28:21;;;;;;;6.32;3.20;;;17.60;79.80;;;;;;5075935;28;20093;-68
2022/09/14 10:31:16;;;;;;;6.07;3.33;;;17.50;80.80;;;;;;5075942;28;20077;-68
2022/09/14 10:33:45;;;;;;;8.32;3.85;;;17.50;80.50;;;;;;5075934;28;20024;-68
2022/09/14 10:36:43;;;;;;;6.72;3.17;;;17.50;80.80;;;;;;5074964;28;20021;-68
2022/09/14 10:39:14;;;;;;;5.35;3.10;;;17.60;80.70;;;;;;5074801;28;20029;-68
2022/09/14 10:41:54;;;;;;;5.35;3.42;;;17.60;80.80;;;;;;5075977;28;20048;-68
2022/09/14 10:44:42;;;;;;;8.93;3.42;;;17.60;81.00;;;;;;5075891;28;20028;-68
2022/09/14 10:47:33;;;;;;;5.63;3.20;;;17.60;81.00;;;;;;5075725;28;20036;-68
2022/09/14 10:50:09;;;;;;;7.07;3.35;;;17.60;80.50;;;;;;5075511;28;20029;-68
2022/09/14 10:52:59;;;;;;;8.13;3.70;;;17.60;81.00;;;;;;5075544;28;20017;-68
2022/09/14 10:56:06;;;;;;;9.77;3.58;;;17.70;81.20;;;;;;5075639;28;20033;-68
2022/09/14 10:58:46;;;;;;;7.85;3.92;;;17.70;81.40;;;;;;5075451;28;20373;-68
2022/09/14 11:01:21;;;;;;;5.55;3.08;;;17.80;80.80;;;;;;5074021;28;20100;-69
2022/09/14 11:04:14;;;;;;;6.55;3.60;;;17.70;79.40;;;;;;5074295;28;20021;-68
2022/09/14 11:06:58;;;;;;;6.32;3.20;;;17.80;79.90;;;;;;5075095;28;20445;-69
2022/09/14 11:09:33;;;;;;;10.75;3.80;;;17.80;79.90;;;;;;5075323;28;20040;-69
2022/09/14 11:12:02;;;;;;;6.22;2.80;;;17.80;79.80;;;;;;5075362;28;20108;-69
2022/09/14 11:14:46;;;;;;;4.90;2.40;;;17.70;78.30;;;;;;5075119;28;20052;-68
2022/09/14 11:18:05;;;;;;;5.55;2.58;;;17.70;77.90;;;;;;5075087;28;20093;-67
2022/09/14 11:20:56;;;;;;;5.38;2.70;;;17.60;78.40;;;;;;5053358;28;20053;-69
2022/09/14 11:23:33;;;;;;;6.40;2.40;;;17.50;79.00;;;;;;5053402;28;20044;-68
2022/09/14 11:26:01;;;;;;;4.45;2.38;;;17.50;79.30;;;;;;5071032;28;20095;-68
2022/09/14 11:28:33;;;;;;;8.18;2.60;;;17.50;79.70;;;;;;5073995;28;20029;-69
2022/09/14 11:31:10;;;;;;;4.82;2.58;;;17.50;79.50;;;;;;5074805;28;20029;-68
2022/09/14 11:33:49;;;;;;;5.47;2.53;;;17.50;79.40;;;;;;5074802;28;20104;-68
2022/09/14 11:36:23;;;;;;;7.57;2.90;;;17.50;79.60;;;;;;5074902;28;20456;-68
2022/09/14 11:38:55;;;;;;;6.00;3.17;;;17.60;79.80;;;;;;5074806;28;20467;-69
2022/09/14 11:41:29;;;;;;;4.73;3.00;;;17.60;80.10;;;;;;5074688;28;20025;-69
2022/09/14 11:44:12;;;;;;;4.35;2.80;;;17.60;79.70;;;;;;5074560;28;20051;-69
2022/09/14 11:46:57;;;;;;;5.25;2.35;;;17.50;79.70;;;;;;5074581;28;20024;-69
2022/09/14 11:50:01;;;;;;;7.15;2.50;;;17.50;79.70;;;;;;5073438;28;20028;-69
2022/09/14 11:52:29;;;;;;;3.33;2.00;;;17.50;79.80;;;;;;5074401;28;20028;-69
2022/09/14 11:54:55;;;;;;;4.78;2.22;;;17.40;79.40;;;;;;5074360;28;20025;-69
2022/09/14 11:57:27;;;;;;;4.50;2.05;;;17.40;79.70;;;;;;5074324;28;20021;-69
2022/09/14 11:59:57;;;;;;;4.27;2.00;;;17.40;80.60;;;;;;5074237;28;20043;-69
2022/09/14 12:02:26;;;;;;;5.00;2.30;;;17.50;80.00;;;;;;5074262;28;20029;-69
2022/09/14 12:05:07;;;;;;;3.97;2.20;;;17.40;80.30;;;;;;5074161;28;20108;-69
2022/09/14 12:07:38;;;;;;;6.72;2.38;;;17.50;80.90;;;;;;5073789;28;20067;-69
2022/09/14 12:10:13;;;;;;;5.32;2.30;;;17.50;80.70;;;;;;5072994;28;20104;-69
2022/09/14 12:13:02;;;;;;;3.83;2.40;;;17.50;80.70;;;;;;5073160;28;20027;-69
2022/09/14 12:15:28;;;;;;;6.00;2.47;;;17.60;80.80;;;;;;5070495;28;20052;-69
2022/09/14 12:18:20;;;;;;;3.38;2.33;;;17.70;81.10;;;;;;5073917;28;20025;-69
2022/09/14 12:20:51;;;;;;;;;;;17.80;81.00;;;;;;5074485;28;20084;-69
2022/09/14 12:23:22;;;;;;;4.53;2.70;;;17.80;80.80;;;;;;5073888;28;19905;-69
2022/09/14 12:26:08;;;;;;;5.30;2.70;;;17.80;80.70;;;;;;5073803;28;20434;-69
2022/09/14 12:28:34;;;;;;;5.82;2.80;;;17.90;80.80;;;;;;5073815;28;20028;-69
2022/09/14 12:31:03;;;;;;;4.57;2.70;;;17.90;80.70;;;;;;5072666;28;20032;-70
2022/09/14 12:33:31;;;;;;;7.13;3.22;;;18.00;80.60;;;;;;5073670;28;20021;-69
2022/09/14 12:36:18;;;;;;;7.25;3.58;;;18.00;80.40;;;;;;5073628;28;20395;-69
2022/09/14 12:38:53;;;;;;;6.80;3.50;;;18.10;80.20;;;;;;5073685;28;20025;-69
2022/09/14 12:41:18;;;;;;;8.90;3.75;;;18.00;80.40;;;;;;5073647;28;20017;-69
2022/09/14 12:43:44;;;;;;;7.97;3.50;;;18.00;80.10;;;;;;5073496;28;20028;-70
2022/09/14 12:46:30;;;;;;;7.82;3.42;;;17.90;80.10;;;;;;5073470;28;20490;-70
2022/09/14 12:49:02;;;;;;;5.55;3.13;;;18.00;80.10;;;;;;5073487;28;20039;-70
2022/09/14 12:51:29;;;;;;;6.22;2.70;;;18.00;80.00;;;;;;5073439;28;20045;-70
2022/09/14 12:54:00;;;;;;;5.93;3.28;;;18.00;79.90;;;;;;5072356;28;20032;-70
2022/09/14 12:56:47;;;;;;;5.82;3.20;;;18.00;79.60;;;;;;5073455;28;20029;-70
2022/09/14 12:59:30;;;;;;;7.60;3.20;;;17.90;79.60;;;;;;5072294;28;20029;-70
2022/09/14 13:02:08;;;;;;;5.97;3.13;;;17.90;81.20;;;;;;5073292;28;20045;-70
2022/09/14 13:04:37;;;;;;;6.85;3.03;;;17.90;80.40;;;;;;5073415;28;20025;-70
2022/09/14 13:07:13;;;;;;;7.65;3.25;;;17.90;80.40;;;;;;5072972;28;20025;-70
2022/09/14 13:09:51;;;;;;;6.13;3.28;;;17.80;80.50;;;;;;5073245;28;20021;-69
2022/09/14 13:12:26;;;;;;;6.38;2.80;;;17.90;80.70;;;;;;5073178;28;20024;-70
2022/09/14 13:14:58;;;;;;;6.13;3.30;;;17.90;80.70;;;;;;5072200;28;20037;-70
2022/09/14 13:17:24;;;;;;;5.53;2.67;;;17.90;80.80;;;;;;5073162;28;20025;-69